sensor_id;sensor_type;location;lat;lon;timestamp;temperature;humidity
3001;DHT22;1510;51.072;6.678;2022-12-05T00:00:36;2.60;99.90
3001;DHT22;1510;51.072;6.678;2022-12-05T00:03:03;2.60;99.90
3001;DHT22;1510;51.072;6.678;2022-12-05T00:05:30;2.70;99.90
3001;DHT22;1510;51.072;6.678;2022-12-05T00:07:57;2.70;99.90
3001;DHT22;1510;51.072;6.678;2022-12-05T00:10:24;2.70;99.90
3001;DHT22;1510;51.072;6.678;2022-12-05T00:12:52;2.70;99.90
3001;DHT22;1510;51.072;6.678;2022-12-05T00:15:18;2.70;99.90
3001;DHT22;1510;51.072;6.678;2022-12-05T00:17:45;2.60;99.90
3001;DHT22;1510;51.072;6.678;2022-12-05T00:20:12;2.70;99.90
3001;DHT22;1510;51.072;6.678;2022-12-05T00:22:38;2.70;99.90
3001;DHT22;1510;51.072;6.678;2022-12-05T00:25:06;2.60;99.90
3001;DHT22;1510;51.072;6.678;2022-12-05T00:27:33;2.70;99.90
3001;DHT22;1510;51.072;6.678;2022-12-05T00:30:01;2.70;99.90
3001;DHT22;1510;51.072;6.678;2022-12-05T00:32:29;2.70;99.90
3001;DHT22;1510;51.072;6.678;2022-12-05T00:34:56;2.70;99.90
3001;DHT22;1510;51.072;6.678;2022-12-05T00:37:23;2.70;99.90
3001;DHT22;1510;51.072;6.678;2022-12-05T00:39:50;2.70;99.90
3001;DHT22;1510;51.072;6.678;2022-12-05T00:42:17;2.60;99.90
3001;DHT22;1510;51.072;6.678;2022-12-05T00:44:43;2.80;99.90
3001;DHT22;1510;51.072;6.678;2022-12-05T00:47:11;2.70;99.90
3001;DHT22;1510;51.072;6.678;2022-12-05T00:49:38;2.70;99.90
3001;DHT22;1510;51.072;6.678;2022-12-05T00:52:05;2.70;99.90
3001;DHT22;1510;51.072;6.678;2022-12-05T00:54:32;2.70;99.90
3001;DHT22;1510;51.072;6.678;2022-12-05T00:56:58;2.80;99.90
3001;DHT22;1510;51.072;6.678;2022-12-05T00:59:25;2.70;99.90
3001;DHT22;1510;51.072;6.678;2022-12-05T01:01:52;2.70;99.90
3001;DHT22;1510;51.072;6.678;2022-12-05T01:04:22;2.70;99.90
3001;DHT22;1510;51.072;6.678;2022-12-05T01:06:49;2.70;99.90
3001;DHT22;1510;51.072;6.678;2022-12-05T01:09:18;2.80;99.90
3001;DHT22;1510;51.072;6.678;2022-12-05T01:11:46;2.70;99.90
3001;DHT22;1510;51.072;6.678;2022-12-05T01:14:14;2.80;99.90
3001;DHT22;1510;51.072;6.678;2022-12-05T01:16:42;2.80;99.90
3001;DHT22;1510;51.072;6.678;2022-12-05T01:19:12;2.80;99.90
3001;DHT22;1510;51.072;6.678;2022-12-05T01:21:40;2.80;99.90
3001;DHT22;1510;51.072;6.678;2022-12-05T01:24:08;2.70;99.90
3001;DHT22;1510;51.072;6.678;2022-12-05T01:26:34;2.80;99.90
3001;DHT22;1510;51.072;6.678;2022-12-05T01:29:01;2.70;99.90
3001;DHT22;1510;51.072;6.678;2022-12-05T01:31:30;2.80;99.90
3001;DHT22;1510;51.072;6.678;2022-12-05T01:33:59;2.80;99.90
3001;DHT22;1510;51.072;6.678;2022-12-05T01:36:27;2.70;99.90
3001;DHT22;1510;51.072;6.678;2022-12-05T01:38:56;2.70;99.90
3001;DHT22;1510;51.072;6.678;2022-12-05T01:41:25;2.80;99.90
3001;DHT22;1510;51.072;6.678;2022-12-05T01:43:54;2.80;99.90
3001;DHT22;1510;51.072;6.678;2022-12-05T01:46:21;2.80;99.90
3001;DHT22;1510;51.072;6.678;2022-12-05T01:48:48;2.80;99.90
3001;DHT22;1510;51.072;6.678;2022-12-05T01:51:17;2.70;99.90
3001;DHT22;1510;51.072;6.678;2022-12-05T01:53:44;2.70;99.90
3001;DHT22;1510;51.072;6.678;2022-12-05T01:56:12;2.70;99.90
3001;DHT22;1510;51.072;6.678;2022-12-05T01:58:41;2.80;99.90
3001;DHT22;1510;51.072;6.678;2022-12-05T02:01:10;2.80;99.90
3001;DHT22;1510;51.072;6.678;2022-12-05T02:03:38;2.80;99.90
3001;DHT22;1510;51.072;6.678;2022-12-05T02:06:05;2.80;99.90
3001;DHT22;1510;51.072;6.678;2022-12-05T02:08:32;2.80;99.90
3001;DHT22;1510;51.072;6.678;2022-12-05T02:10:59;2.80;99.90
3001;DHT22;1510;51.072;6.678;2022-12-05T02:13:34;2.70;99.90
3001;DHT22;1510;51.072;6.678;2022-12-05T02:16:06;2.80;99.90
3001;DHT22;1510;51.072;6.678;2022-12-05T02:18:47;2.80;99.90
3001;DHT22;1510;51.072;6.678;2022-12-05T02:21:53;2.80;99.90
3001;DHT22;1510;51.072;6.678;2022-12-05T02:24:52;2.80;99.90
3001;DHT22;1510;51.072;6.678;2022-12-05T02:27:35;2.80;99.90
3001;DHT22;1510;51.072;6.678;2022-12-05T02:30:08;2.70;99.90
3001;DHT22;1510;51.072;6.678;2022-12-05T02:32:49;2.70;99.90
3001;DHT22;1510;51.072;6.678;2022-12-05T02:35:27;2.80;99.90
3001;DHT22;1510;51.072;6.678;2022-12-05T02:38:01;2.70;99.90
3001;DHT22;1510;51.072;6.678;2022-12-05T02:40:36;2.70;99.90
3001;DHT22;1510;51.072;6.678;2022-12-05T02:43:07;2.60;99.90
3001;DHT22;1510;51.072;6.678;2022-12-05T02:45:40;2.60;99.90
3001;DHT22;1510;51.072;6.678;2022-12-05T02:48:10;2.60;99.90
3001;DHT22;1510;51.072;6.678;2022-12-05T02:50:39;2.60;99.90
3001;DHT22;1510;51.072;6.678;2022-12-05T02:53:10;2.50;99.90
3001;DHT22;1510;51.072;6.678;2022-12-05T02:55:37;2.60;99.90
3001;DHT22;1510;51.072;6.678;2022-12-05T02:58:10;2.50;99.90
3001;DHT22;1510;51.072;6.678;2022-12-05T03:00:42;2.50;99.90
3001;DHT22;1510;51.072;6.678;2022-12-05T03:03:13;2.50;99.90
3001;DHT22;1510;51.072;6.678;2022-12-05T03:05:44;2.50;99.90
3001;DHT22;1510;51.072;6.678;2022-12-05T03:08:17;2.50;99.90
3001;DHT22;1510;51.072;6.678;2022-12-05T03:10:46;2.50;99.90
3001;DHT22;1510;51.072;6.678;2022-12-05T03:13:17;2.50;99.90
3001;DHT22;1510;51.072;6.678;2022-12-05T03:15:48;2.50;99.90
3001;DHT22;1510;51.072;6.678;2022-12-05T03:18:20;2.50;99.90
3001;DHT22;1510;51.072;6.678;2022-12-05T03:20:52;2.40;99.90
3001;DHT22;1510;51.072;6.678;2022-12-05T03:23:25;2.50;99.90
3001;DHT22;1510;51.072;6.678;2022-12-05T03:25:59;2.40;99.90
3001;DHT22;1510;51.072;6.678;2022-12-05T03:28:32;2.30;99.90
3001;DHT22;1510;51.072;6.678;2022-12-05T03:31:08;2.30;99.90
3001;DHT22;1510;51.072;6.678;2022-12-05T03:33:40;2.30;99.90
3001;DHT22;1510;51.072;6.678;2022-12-05T03:36:11;2.30;99.90
3001;DHT22;1510;51.072;6.678;2022-12-05T03:38:43;2.30;99.90
3001;DHT22;1510;51.072;6.678;2022-12-05T03:41:15;2.30;99.90
3001;DHT22;1510;51.072;6.678;2022-12-05T03:43:47;2.30;99.90
3001;DHT22;1510;51.072;6.678;2022-12-05T03:46:23;2.20;99.90
3001;DHT22;1510;51.072;6.678;2022-12-05T03:48:55;2.20;99.90
3001;DHT22;1510;51.072;6.678;2022-12-05T03:51:27;2.20;99.90
3001;DHT22;1510;51.072;6.678;2022-12-05T03:53:59;2.20;99.90
3001;DHT22;1510;51.072;6.678;2022-12-05T03:56:33;2.10;99.90
3001;DHT22;1510;51.072;6.678;2022-12-05T03:59:04;2.10;99.90
3001;DHT22;1510;51.072;6.678;2022-12-05T04:01:35;2.00;99.90
3001;DHT22;1510;51.072;6.678;2022-12-05T04:04:09;2.00;99.90
3001;DHT22;1510;51.072;6.678;2022-12-05T04:06:37;2.00;99.90
3001;DHT22;1510;51.072;6.678;2022-12-05T04:09:09;2.10;99.90
3001;DHT22;1510;51.072;6.678;2022-12-05T04:11:43;2.00;99.90
3001;DHT22;1510;51.072;6.678;2022-12-05T04:14:14;1.90;99.90
3001;DHT22;1510;51.072;6.678;2022-12-05T04:16:46;2.00;99.90
3001;DHT22;1510;51.072;6.678;2022-12-05T04:19:35;2.00;99.90
3001;DHT22;1510;51.072;6.678;2022-12-05T04:22:23;1.90;99.90
3001;DHT22;1510;51.072;6.678;2022-12-05T04:24:51;1.90;99.90
3001;DHT22;1510;51.072;6.678;2022-12-05T04:27:41;2.00;99.90
3001;DHT22;1510;51.072;6.678;2022-12-05T04:30:13;1.90;99.90
3001;DHT22;1510;51.072;6.678;2022-12-05T04:32:46;1.90;99.90
3001;DHT22;1510;51.072;6.678;2022-12-05T04:35:18;1.90;99.90
3001;DHT22;1510;51.072;6.678;2022-12-05T04:37:50;1.90;99.90
3001;DHT22;1510;51.072;6.678;2022-12-05T04:40:20;1.90;99.90
3001;DHT22;1510;51.072;6.678;2022-12-05T04:42:50;1.90;99.90
3001;DHT22;1510;51.072;6.678;2022-12-05T04:45:19;1.80;99.90
3001;DHT22;1510;51.072;6.678;2022-12-05T04:47:50;1.80;99.90
3001;DHT22;1510;51.072;6.678;2022-12-05T04:50:19;1.80;99.90
3001;DHT22;1510;51.072;6.678;2022-12-05T04:52:50;1.90;99.90
3001;DHT22;1510;51.072;6.678;2022-12-05T04:55:20;1.80;99.90
3001;DHT22;1510;51.072;6.678;2022-12-05T04:57:56;1.80;99.90
3001;DHT22;1510;51.072;6.678;2022-12-05T05:00:25;1.80;99.90
3001;DHT22;1510;51.072;6.678;2022-12-05T05:02:59;1.70;99.90
3001;DHT22;1510;51.072;6.678;2022-12-05T05:05:30;1.70;99.90
3001;DHT22;1510;51.072;6.678;2022-12-05T05:07:58;1.60;99.90
3001;DHT22;1510;51.072;6.678;2022-12-05T05:10:30;1.50;99.90
3001;DHT22;1510;51.072;6.678;2022-12-05T05:12:58;1.50;99.90
3001;DHT22;1510;51.072;6.678;2022-12-05T05:15:25;1.50;99.90
3001;DHT22;1510;51.072;6.678;2022-12-05T05:17:51;1.50;99.90
3001;DHT22;1510;51.072;6.678;2022-12-05T05:20:19;1.40;99.90
3001;DHT22;1510;51.072;6.678;2022-12-05T05:22:49;1.40;99.90
3001;DHT22;1510;51.072;6.678;2022-12-05T05:25:15;1.30;99.90
3001;DHT22;1510;51.072;6.678;2022-12-05T05:27:42;1.30;99.90
3001;DHT22;1510;51.072;6.678;2022-12-05T05:30:09;1.30;99.90
3001;DHT22;1510;51.072;6.678;2022-12-05T05:32:36;1.30;99.90
3001;DHT22;1510;51.072;6.678;2022-12-05T05:35:03;1.30;99.90
3001;DHT22;1510;51.072;6.678;2022-12-05T05:37:31;1.20;99.90
3001;DHT22;1510;51.072;6.678;2022-12-05T05:39:58;1.20;99.90
3001;DHT22;1510;51.072;6.678;2022-12-05T05:42:24;1.10;99.90
3001;DHT22;1510;51.072;6.678;2022-12-05T05:44:51;1.10;99.90
3001;DHT22;1510;51.072;6.678;2022-12-05T05:47:18;1.00;99.90
3001;DHT22;1510;51.072;6.678;2022-12-05T05:49:45;1.10;99.90
3001;DHT22;1510;51.072;6.678;2022-12-05T05:52:11;1.10;99.90
3001;DHT22;1510;51.072;6.678;2022-12-05T05:54:39;1.10;99.90
3001;DHT22;1510;51.072;6.678;2022-12-05T05:57:06;1.10;99.90
3001;DHT22;1510;51.072;6.678;2022-12-05T05:59:33;1.10;99.90
3001;DHT22;1510;51.072;6.678;2022-12-05T06:02:00;1.10;99.90
3001;DHT22;1510;51.072;6.678;2022-12-05T06:04:27;1.10;99.90
3001;DHT22;1510;51.072;6.678;2022-12-05T06:06:53;1.10;99.90
3001;DHT22;1510;51.072;6.678;2022-12-05T06:09:20;1.10;99.90
3001;DHT22;1510;51.072;6.678;2022-12-05T06:11:48;1.00;99.90
3001;DHT22;1510;51.072;6.678;2022-12-05T06:14:15;1.00;99.90
3001;DHT22;1510;51.072;6.678;2022-12-05T06:16:41;1.00;99.90
3001;DHT22;1510;51.072;6.678;2022-12-05T06:19:08;1.10;99.90
3001;DHT22;1510;51.072;6.678;2022-12-05T06:21:44;1.00;99.90
3001;DHT22;1510;51.072;6.678;2022-12-05T06:24:25;1.10;99.90
3001;DHT22;1510;51.072;6.678;2022-12-05T06:26:59;1.00;99.90
3001;DHT22;1510;51.072;6.678;2022-12-05T06:29:26;1.00;99.90
3001;DHT22;1510;51.072;6.678;2022-12-05T06:31:53;0.90;99.90
3001;DHT22;1510;51.072;6.678;2022-12-05T06:34:22;1.10;99.90
3001;DHT22;1510;51.072;6.678;2022-12-05T06:37:02;1.00;99.90
3001;DHT22;1510;51.072;6.678;2022-12-05T06:39:28;1.10;99.90
3001;DHT22;1510;51.072;6.678;2022-12-05T06:41:57;1.00;99.90
3001;DHT22;1510;51.072;6.678;2022-12-05T06:44:28;1.00;99.90
3001;DHT22;1510;51.072;6.678;2022-12-05T06:46:55;1.00;99.90
3001;DHT22;1510;51.072;6.678;2022-12-05T06:49:25;0.90;99.90
3001;DHT22;1510;51.072;6.678;2022-12-05T06:51:56;1.10;99.90
3001;DHT22;1510;51.072;6.678;2022-12-05T06:54:23;1.00;99.90
3001;DHT22;1510;51.072;6.678;2022-12-05T06:56:50;1.00;99.90
3001;DHT22;1510;51.072;6.678;2022-12-05T06:59:18;1.00;99.90
3001;DHT22;1510;51.072;6.678;2022-12-05T07:01:44;1.00;99.90
3001;DHT22;1510;51.072;6.678;2022-12-05T07:04:13;1.00;99.90
3001;DHT22;1510;51.072;6.678;2022-12-05T07:06:41;1.00;99.90
3001;DHT22;1510;51.072;6.678;2022-12-05T07:09:08;1.10;99.90
3001;DHT22;1510;51.072;6.678;2022-12-05T07:11:36;1.00;99.90
3001;DHT22;1510;51.072;6.678;2022-12-05T07:14:03;1.00;99.90
3001;DHT22;1510;51.072;6.678;2022-12-05T07:16:32;1.00;99.90
3001;DHT22;1510;51.072;6.678;2022-12-05T07:18:58;1.00;99.90
3001;DHT22;1510;51.072;6.678;2022-12-05T07:21:25;1.00;99.90
3001;DHT22;1510;51.072;6.678;2022-12-05T07:23:52;1.00;99.90
3001;DHT22;1510;51.072;6.678;2022-12-05T07:26:21;1.00;99.90
3001;DHT22;1510;51.072;6.678;2022-12-05T07:28:49;1.00;99.90
3001;DHT22;1510;51.072;6.678;2022-12-05T07:31:18;1.00;99.90
3001;DHT22;1510;51.072;6.678;2022-12-05T07:33:47;1.00;99.90
3001;DHT22;1510;51.072;6.678;2022-12-05T07:36:16;0.90;99.90
3001;DHT22;1510;51.072;6.678;2022-12-05T07:38:43;1.00;99.90
3001;DHT22;1510;51.072;6.678;2022-12-05T07:41:13;0.90;99.90
3001;DHT22;1510;51.072;6.678;2022-12-05T07:43:41;0.90;99.90
3001;DHT22;1510;51.072;6.678;2022-12-05T07:46:08;0.90;99.90
3001;DHT22;1510;51.072;6.678;2022-12-05T07:48:36;1.00;99.90
3001;DHT22;1510;51.072;6.678;2022-12-05T07:51:06;0.90;99.90
3001;DHT22;1510;51.072;6.678;2022-12-05T07:53:33;0.90;99.90
3001;DHT22;1510;51.072;6.678;2022-12-05T07:56:01;1.00;99.90
3001;DHT22;1510;51.072;6.678;2022-12-05T07:58:29;1.00;99.90
3001;DHT22;1510;51.072;6.678;2022-12-05T08:00:55;1.00;99.90
3001;DHT22;1510;51.072;6.678;2022-12-05T08:03:22;0.90;99.90
3001;DHT22;1510;51.072;6.678;2022-12-05T08:05:49;0.90;99.90
3001;DHT22;1510;51.072;6.678;2022-12-05T08:08:17;0.90;99.90
3001;DHT22;1510;51.072;6.678;2022-12-05T08:10:44;1.00;99.90
3001;DHT22;1510;51.072;6.678;2022-12-05T08:13:11;1.00;99.90
3001;DHT22;1510;51.072;6.678;2022-12-05T08:15:40;1.00;99.90
3001;DHT22;1510;51.072;6.678;2022-12-05T08:18:07;1.10;99.90
3001;DHT22;1510;51.072;6.678;2022-12-05T08:20:34;1.00;99.90
3001;DHT22;1510;51.072;6.678;2022-12-05T08:23:01;1.00;99.90
3001;DHT22;1510;51.072;6.678;2022-12-05T08:25:29;1.10;99.90
3001;DHT22;1510;51.072;6.678;2022-12-05T08:27:55;1.00;99.90
3001;DHT22;1510;51.072;6.678;2022-12-05T08:30:22;1.00;99.90
3001;DHT22;1510;51.072;6.678;2022-12-05T08:32:49;1.10;99.90
3001;DHT22;1510;51.072;6.678;2022-12-05T08:35:15;1.00;99.90
3001;DHT22;1510;51.072;6.678;2022-12-05T08:37:42;1.10;99.90
3001;DHT22;1510;51.072;6.678;2022-12-05T08:40:10;1.20;99.90
3001;DHT22;1510;51.072;6.678;2022-12-05T08:42:38;1.10;99.90
3001;DHT22;1510;51.072;6.678;2022-12-05T08:45:05;1.20;99.90
3001;DHT22;1510;51.072;6.678;2022-12-05T08:47:32;1.10;99.90
3001;DHT22;1510;51.072;6.678;2022-12-05T08:49:59;1.20;99.90
3001;DHT22;1510;51.072;6.678;2022-12-05T08:52:26;1.30;99.90
3001;DHT22;1510;51.072;6.678;2022-12-05T08:54:52;1.30;99.90
3001;DHT22;1510;51.072;6.678;2022-12-05T08:57:19;1.30;99.90
3001;DHT22;1510;51.072;6.678;2022-12-05T08:59:47;1.30;99.90
3001;DHT22;1510;51.072;6.678;2022-12-05T09:02:14;1.30;99.90
3001;DHT22;1510;51.072;6.678;2022-12-05T09:04:40;1.30;99.90
3001;DHT22;1510;51.072;6.678;2022-12-05T09:07:07;1.40;99.90
3001;DHT22;1510;51.072;6.678;2022-12-05T09:09:34;1.30;99.90
3001;DHT22;1510;51.072;6.678;2022-12-05T09:12:01;1.40;99.90
3001;DHT22;1510;51.072;6.678;2022-12-05T09:14:28;1.40;99.90
3001;DHT22;1510;51.072;6.678;2022-12-05T09:16:59;1.40;99.90
3001;DHT22;1510;51.072;6.678;2022-12-05T09:19:27;1.40;99.90
3001;DHT22;1510;51.072;6.678;2022-12-05T09:21:54;1.40;99.90
3001;DHT22;1510;51.072;6.678;2022-12-05T09:24:21;1.50;99.90
3001;DHT22;1510;51.072;6.678;2022-12-05T09:26:48;1.40;99.90
3001;DHT22;1510;51.072;6.678;2022-12-05T09:29:15;1.50;99.90
3001;DHT22;1510;51.072;6.678;2022-12-05T09:31:42;1.50;99.90
3001;DHT22;1510;51.072;6.678;2022-12-05T09:34:10;1.60;99.90
3001;DHT22;1510;51.072;6.678;2022-12-05T09:36:38;1.60;99.90
3001;DHT22;1510;51.072;6.678;2022-12-05T09:39:05;1.50;99.90
3001;DHT22;1510;51.072;6.678;2022-12-05T09:41:59;1.70;99.90
3001;DHT22;1510;51.072;6.678;2022-12-05T09:44:47;1.60;99.90
3001;DHT22;1510;51.072;6.678;2022-12-05T09:47:27;1.60;99.90
3001;DHT22;1510;51.072;6.678;2022-12-05T09:49:59;1.70;99.90
3001;DHT22;1510;51.072;6.678;2022-12-05T09:52:31;1.70;99.90
3001;DHT22;1510;51.072;6.678;2022-12-05T09:55:03;1.70;99.90
3001;DHT22;1510;51.072;6.678;2022-12-05T09:57:34;1.70;99.90
3001;DHT22;1510;51.072;6.678;2022-12-05T10:00:04;1.70;99.90
3001;DHT22;1510;51.072;6.678;2022-12-05T10:02:38;1.70;99.90
3001;DHT22;1510;51.072;6.678;2022-12-05T10:05:11;1.70;99.90
3001;DHT22;1510;51.072;6.678;2022-12-05T10:07:48;1.60;99.90
3001;DHT22;1510;51.072;6.678;2022-12-05T10:10:27;1.70;99.90
3001;DHT22;1510;51.072;6.678;2022-12-05T10:13:07;1.60;99.90
3001;DHT22;1510;51.072;6.678;2022-12-05T10:15:41;1.60;99.90
3001;DHT22;1510;51.072;6.678;2022-12-05T10:18:26;1.60;99.90
3001;DHT22;1510;51.072;6.678;2022-12-05T10:20:58;1.60;99.90
3001;DHT22;1510;51.072;6.678;2022-12-05T10:23:29;1.50;99.90
3001;DHT22;1510;51.072;6.678;2022-12-05T10:25:58;1.40;99.90
3001;DHT22;1510;51.072;6.678;2022-12-05T10:28:31;1.50;99.90
3001;DHT22;1510;51.072;6.678;2022-12-05T10:31:03;1.40;99.90
3001;DHT22;1510;51.072;6.678;2022-12-05T10:33:37;1.50;99.90
3001;DHT22;1510;51.072;6.678;2022-12-05T10:36:13;1.50;99.90
3001;DHT22;1510;51.072;6.678;2022-12-05T10:38:41;1.40;99.90
3001;DHT22;1510;51.072;6.678;2022-12-05T10:41:10;1.40;99.90
3001;DHT22;1510;51.072;6.678;2022-12-05T10:43:41;1.40;99.90
3001;DHT22;1510;51.072;6.678;2022-12-05T10:46:09;1.40;99.90
3001;DHT22;1510;51.072;6.678;2022-12-05T10:48:37;1.40;99.90
3001;DHT22;1510;51.072;6.678;2022-12-05T10:51:06;1.50;99.90
3001;DHT22;1510;51.072;6.678;2022-12-05T10:53:42;1.50;99.90
3001;DHT22;1510;51.072;6.678;2022-12-05T10:56:35;1.50;99.90
3001;DHT22;1510;51.072;6.678;2022-12-05T10:59:02;1.60;99.90
3001;DHT22;1510;51.072;6.678;2022-12-05T11:01:32;1.50;99.90
3001;DHT22;1510;51.072;6.678;2022-12-05T11:04:07;1.40;99.90
3001;DHT22;1510;51.072;6.678;2022-12-05T11:06:34;1.50;99.90
3001;DHT22;1510;51.072;6.678;2022-12-05T11:09:16;1.50;99.90
3001;DHT22;1510;51.072;6.678;2022-12-05T11:11:57;1.50;99.90
3001;DHT22;1510;51.072;6.678;2022-12-05T11:14:26;1.50;99.90
3001;DHT22;1510;51.072;6.678;2022-12-05T11:16:55;1.50;99.90
3001;DHT22;1510;51.072;6.678;2022-12-05T11:19:26;1.50;99.90
3001;DHT22;1510;51.072;6.678;2022-12-05T11:21:54;1.50;99.90
3001;DHT22;1510;51.072;6.678;2022-12-05T11:24:25;1.50;99.90
3001;DHT22;1510;51.072;6.678;2022-12-05T11:26:53;1.50;99.90
3001;DHT22;1510;51.072;6.678;2022-12-05T11:29:37;1.50;99.90
3001;DHT22;1510;51.072;6.678;2022-12-05T11:32:16;1.50;99.90
3001;DHT22;1510;51.072;6.678;2022-12-05T11:34:47;1.50;99.90
3001;DHT22;1510;51.072;6.678;2022-12-05T11:37:20;1.40;99.90
3001;DHT22;1510;51.072;6.678;2022-12-05T11:39:50;1.40;99.90
3001;DHT22;1510;51.072;6.678;2022-12-05T11:42:27;1.50;99.90
3001;DHT22;1510;51.072;6.678;2022-12-05T11:45:16;1.40;99.90
3001;DHT22;1510;51.072;6.678;2022-12-05T11:47:58;1.60;99.90
3001;DHT22;1510;51.072;6.678;2022-12-05T11:50:39;1.60;99.90
3001;DHT22;1510;51.072;6.678;2022-12-05T11:53:25;1.60;99.90
3001;DHT22;1510;51.072;6.678;2022-12-05T11:56:02;1.70;99.90
3001;DHT22;1510;51.072;6.678;2022-12-05T11:58:44;1.70;99.90
3001;DHT22;1510;51.072;6.678;2022-12-05T12:01:25;1.70;99.90
3001;DHT22;1510;51.072;6.678;2022-12-05T12:04:04;1.80;99.90
3001;DHT22;1510;51.072;6.678;2022-12-05T12:06:45;1.80;99.90
3001;DHT22;1510;51.072;6.678;2022-12-05T12:09:28;1.80;99.90
3001;DHT22;1510;51.072;6.678;2022-12-05T12:12:04;1.90;99.90
3001;DHT22;1510;51.072;6.678;2022-12-05T12:14:37;1.90;99.90
3001;DHT22;1510;51.072;6.678;2022-12-05T12:17:18;2.00;99.90
3001;DHT22;1510;51.072;6.678;2022-12-05T12:20:19;2.10;99.90
3001;DHT22;1510;51.072;6.678;2022-12-05T12:22:59;2.20;99.90
3001;DHT22;1510;51.072;6.678;2022-12-05T12:25:38;2.30;99.90
3001;DHT22;1510;51.072;6.678;2022-12-05T12:28:27;2.30;99.90
3001;DHT22;1510;51.072;6.678;2022-12-05T12:31:05;2.30;99.90
3001;DHT22;1510;51.072;6.678;2022-12-05T12:33:39;2.40;99.90
3001;DHT22;1510;51.072;6.678;2022-12-05T12:36:15;2.40;99.90
3001;DHT22;1510;51.072;6.678;2022-12-05T12:39:02;2.50;99.90
3001;DHT22;1510;51.072;6.678;2022-12-05T12:41:48;2.50;99.90
3001;DHT22;1510;51.072;6.678;2022-12-05T12:44:52;2.40;99.90
3001;DHT22;1510;51.072;6.678;2022-12-05T12:47:27;2.30;99.90
3001;DHT22;1510;51.072;6.678;2022-12-05T12:50:04;2.20;99.90
3001;DHT22;1510;51.072;6.678;2022-12-05T12:52:49;2.30;99.90
3001;DHT22;1510;51.072;6.678;2022-12-05T12:55:23;2.30;99.90
3001;DHT22;1510;51.072;6.678;2022-12-05T12:58:00;2.30;99.90
3001;DHT22;1510;51.072;6.678;2022-12-05T13:00:40;2.20;99.90
3001;DHT22;1510;51.072;6.678;2022-12-05T13:03:15;2.20;99.90
3001;DHT22;1510;51.072;6.678;2022-12-05T13:05:47;2.20;99.90
3001;DHT22;1510;51.072;6.678;2022-12-05T13:08:20;2.20;99.90
3001;DHT22;1510;51.072;6.678;2022-12-05T13:10:51;2.20;99.90
3001;DHT22;1510;51.072;6.678;2022-12-05T13:13:21;2.20;99.90
3001;DHT22;1510;51.072;6.678;2022-12-05T13:15:52;2.20;99.90
3001;DHT22;1510;51.072;6.678;2022-12-05T13:18:24;2.20;99.90
3001;DHT22;1510;51.072;6.678;2022-12-05T13:20:53;2.20;99.90
3001;DHT22;1510;51.072;6.678;2022-12-05T13:23:22;2.10;99.90
3001;DHT22;1510;51.072;6.678;2022-12-05T13:25:51;2.10;99.90
3001;DHT22;1510;51.072;6.678;2022-12-05T13:28:26;2.10;99.90
3001;DHT22;1510;51.072;6.678;2022-12-05T13:30:55;2.10;99.90
3001;DHT22;1510;51.072;6.678;2022-12-05T13:33:31;2.00;99.90
3001;DHT22;1510;51.072;6.678;2022-12-05T13:36:04;2.10;99.90
3001;DHT22;1510;51.072;6.678;2022-12-05T13:38:58;2.00;99.90
3001;DHT22;1510;51.072;6.678;2022-12-05T13:41:45;2.00;99.90
3001;DHT22;1510;51.072;6.678;2022-12-05T13:44:35;1.90;99.90
3001;DHT22;1510;51.072;6.678;2022-12-05T13:47:04;1.80;99.90
3001;DHT22;1510;51.072;6.678;2022-12-05T13:49:40;1.70;99.90
3001;DHT22;1510;51.072;6.678;2022-12-05T13:52:12;1.80;99.90
3001;DHT22;1510;51.072;6.678;2022-12-05T13:54:42;1.60;99.90
3001;DHT22;1510;51.072;6.678;2022-12-05T13:57:43;1.60;99.90
3001;DHT22;1510;51.072;6.678;2022-12-05T14:00:31;1.50;99.90
3001;DHT22;1510;51.072;6.678;2022-12-05T14:03:04;1.50;99.90
3001;DHT22;1510;51.072;6.678;2022-12-05T14:05:39;1.50;99.90
3001;DHT22;1510;51.072;6.678;2022-12-05T14:11:12;1.40;99.90
3001;DHT22;1510;51.072;6.678;2022-12-05T14:13:41;1.40;99.90
3001;DHT22;1510;51.072;6.678;2022-12-05T14:19:39;1.30;99.90
3001;DHT22;1510;51.072;6.678;2022-12-05T14:22:23;1.30;99.90
3001;DHT22;1510;51.072;6.678;2022-12-05T14:24:57;1.30;99.90
3001;DHT22;1510;51.072;6.678;2022-12-05T14:27:39;1.20;99.90
3001;DHT22;1510;51.072;6.678;2022-12-05T14:30:20;1.20;99.90
3001;DHT22;1510;51.072;6.678;2022-12-05T14:32:49;1.10;99.90
3001;DHT22;1510;51.072;6.678;2022-12-05T14:35:23;1.20;99.90
3001;DHT22;1510;51.072;6.678;2022-12-05T14:37:53;1.20;99.90
3001;DHT22;1510;51.072;6.678;2022-12-05T14:40:27;1.20;99.90
3001;DHT22;1510;51.072;6.678;2022-12-05T14:42:56;1.10;99.90
3001;DHT22;1510;51.072;6.678;2022-12-05T14:45:27;1.10;99.90
3001;DHT22;1510;51.072;6.678;2022-12-05T14:47:56;1.20;99.90
3001;DHT22;1510;51.072;6.678;2022-12-05T14:50:40;1.10;99.90
3001;DHT22;1510;51.072;6.678;2022-12-05T14:53:38;1.10;99.90
3001;DHT22;1510;51.072;6.678;2022-12-05T14:56:15;1.10;99.90
3001;DHT22;1510;51.072;6.678;2022-12-05T14:58:46;1.00;99.90
3001;DHT22;1510;51.072;6.678;2022-12-05T15:01:21;1.10;99.90
3001;DHT22;1510;51.072;6.678;2022-12-05T15:04:08;1.10;99.90
3001;DHT22;1510;51.072;6.678;2022-12-05T15:06:47;1.20;99.90
3001;DHT22;1510;51.072;6.678;2022-12-05T15:09:29;1.20;99.90
3001;DHT22;1510;51.072;6.678;2022-12-05T15:11:58;1.10;99.90
3001;DHT22;1510;51.072;6.678;2022-12-05T15:14:28;1.10;99.90
3001;DHT22;1510;51.072;6.678;2022-12-05T15:17:01;1.10;99.90
3001;DHT22;1510;51.072;6.678;2022-12-05T15:19:41;1.10;99.90
3001;DHT22;1510;51.072;6.678;2022-12-05T15:22:12;1.10;99.90
3001;DHT22;1510;51.072;6.678;2022-12-05T15:24:41;1.20;99.90
3001;DHT22;1510;51.072;6.678;2022-12-05T15:27:09;1.00;99.90
3001;DHT22;1510;51.072;6.678;2022-12-05T15:29:38;1.00;99.90
3001;DHT22;1510;51.072;6.678;2022-12-05T15:32:14;1.10;99.90
3001;DHT22;1510;51.072;6.678;2022-12-05T15:34:45;1.10;99.90
3001;DHT22;1510;51.072;6.678;2022-12-05T15:37:21;1.00;99.90
3001;DHT22;1510;51.072;6.678;2022-12-05T15:39:51;0.90;99.90
3001;DHT22;1510;51.072;6.678;2022-12-05T15:42:19;0.90;99.90
3001;DHT22;1510;51.072;6.678;2022-12-05T15:44:46;0.90;99.90
3001;DHT22;1510;51.072;6.678;2022-12-05T15:47:19;0.90;99.90
3001;DHT22;1510;51.072;6.678;2022-12-05T15:49:46;0.90;99.90
3001;DHT22;1510;51.072;6.678;2022-12-05T15:52:23;0.90;99.90
3001;DHT22;1510;51.072;6.678;2022-12-05T15:54:57;0.90;99.90
3001;DHT22;1510;51.072;6.678;2022-12-05T15:57:29;0.90;99.90
3001;DHT22;1510;51.072;6.678;2022-12-05T16:00:02;0.90;99.90
3001;DHT22;1510;51.072;6.678;2022-12-05T16:02:35;0.90;99.90
3001;DHT22;1510;51.072;6.678;2022-12-05T16:05:18;0.90;99.90
3001;DHT22;1510;51.072;6.678;2022-12-05T16:07:50;0.90;99.90
3001;DHT22;1510;51.072;6.678;2022-12-05T16:10:19;0.90;99.90
3001;DHT22;1510;51.072;6.678;2022-12-05T16:12:47;0.90;99.90
3001;DHT22;1510;51.072;6.678;2022-12-05T16:15:18;0.90;99.90
3001;DHT22;1510;51.072;6.678;2022-12-05T16:17:54;0.80;99.90
3001;DHT22;1510;51.072;6.678;2022-12-05T16:20:27;0.90;99.90
3001;DHT22;1510;51.072;6.678;2022-12-05T16:22:59;0.90;99.90
3001;DHT22;1510;51.072;6.678;2022-12-05T16:25:27;0.80;99.90
3001;DHT22;1510;51.072;6.678;2022-12-05T16:27:56;0.90;99.90
3001;DHT22;1510;51.072;6.678;2022-12-05T16:30:24;0.90;99.90
3001;DHT22;1510;51.072;6.678;2022-12-05T16:32:58;0.80;99.90
3001;DHT22;1510;51.072;6.678;2022-12-05T16:35:28;0.80;99.90
3001;DHT22;1510;51.072;6.678;2022-12-05T16:38:04;0.90;99.90
3001;DHT22;1510;51.072;6.678;2022-12-05T16:40:32;0.80;99.90
3001;DHT22;1510;51.072;6.678;2022-12-05T16:43:03;0.90;99.90
3001;DHT22;1510;51.072;6.678;2022-12-05T16:45:39;0.90;99.90
3001;DHT22;1510;51.072;6.678;2022-12-05T16:48:15;0.90;99.90
3001;DHT22;1510;51.072;6.678;2022-12-05T16:50:48;0.90;99.90
3001;DHT22;1510;51.072;6.678;2022-12-05T16:53:21;0.90;99.90